Vaaraa aiheuttavia sääilmiöitä ei ole odotettavissa.    Ei varoituksia

Webkamera Lisätietoa Webcam


Yksityisiä sääasemia lähellä:

Sääasema Juupajoki

Sääasema Orivesi

Sääasema Muurame

Sääasema Jyväskylä

Sääasema Vihtavuori


Löydät sääaseman tiedot myös:

Finland Weather Exchange

European Weather Network

Weather Underground

AWEKAS

Windy.com



Säätiedot lähimmiltä METAR asemilta

   
EFHA - Halli (Fin-Afb), Finland
Etäisyys asemalta: Kaakko 25 km
Päivitetty: 20.11.2019 10:20
Pilvistä  
Pilvistä  
   Tuuli: Etelä 5.1 m/s
Tuuli: Etelä 5.1 m/s
Lämpötila: 5°C
Tuulen hyytävyys: 1°C
Kastepiste: 4°C
Kosteus: 93%
Ilmanpaine: 1026 hPa
Pilvisyys: Pilvistä
Näkyvyys: Enemmän kuin 10 km
Pilvitiedot: Pilvistä 91 m
EFHA 200820Z 17010KT 140V200 9999 OVC003 05/04 Q1026
EFJY - Jyvaskyla (Mil/Civ), Finland
Etäisyys asemalta: Koillinen 75 km
Päivitetty: 20.11.2019 10:20
Pilvistä  
Pilvistä  
   Tuuli: Eteläkaakko 4.6 m/s
Tuuli: Eteläkaakko 4.6 m/s
Lämpötila: 4°C
Tuulen hyytävyys: 0°C
Kastepiste: 4°C
Kosteus: 100%
Ilmanpaine: 1027 hPa
Pilvisyys: Pilvistä
Näkyvyys: Enemmän kuin 10 km
Pilvitiedot: Pilvistä 122 m
EFJY 200820Z 16009KT 9999 OVC004 04/04 Q1027
EFTP - Tampere/Pirkkala, Finland
Etäisyys asemalta: Lounas 81 km
Päivitetty: 20.11.2019 10:20
Melkein pilvistä  
Melkein pilvistä  
   Tuuli: Etelä 5.1 m/s
Tuuli: Etelä 5.1 m/s
Lämpötila: 6°C
Tuulen hyytävyys: 3°C
Kastepiste: 5°C
Kosteus: 93%
Ilmanpaine: 1026 hPa
Pilvisyys: Melkein pilvistä
Näkyvyys: Enemmän kuin 10 km
Pilvitiedot: Melkein pilvistä 183 m,
Melkein pilvistä 1524 m
EFTP 200820Z 17010KT 130V200 9999 BKN006 BKN050 06/05 Q1026
EFSI - Seinajoki-Ilmajoki, Finland
Etäisyys asemalta: Luode 114 km
Päivitetty: 20.11.2019 10:20
Heikkoja sadekuuroja, Sade, Melkein pilvistä  
Heikkoja sadekuuroja, Sade, Melkein pilvistä  
   Tuuli: Etelä 2.6 m/s
Tuuli: Etelä 2.6 m/s
Lämpötila: 6°C
Tuulen hyytävyys: 4°C
Kastepiste: 5°C
Kosteus: 93%
Ilmanpaine: 1023 hPa
Pilvisyys: Melkein pilvistä
Näkyvyys: Enemmän kuin 10 km
Pilvitiedot: Vähäistä pilvisyyttä 640 m,
Melkein pilvistä 1372 m
EFSI 200820Z AUTO 17005KT 140V210 9999 -SHRA FEW021 BKN045 06/05 Q1023
EFMI - Mikkeli, Finland
Etäisyys asemalta: Itäkaakko 147 km
Päivitetty: 20.11.2019 10:20
Utua, Pilvistä  
Utua, Pilvistä  
   Tuuli: Tyyntä
Tuuli: Tyyntä
Pilvisyys: Pilvistä
Näkyvyys: 2 km
Pilvitiedot: Pilvistä 91 m
EFMI 200820Z AUTO 2100 BR OVC003 ///// Q////
EFPO - Pori (Mil/Civ), Finland
Etäisyys asemalta: Länsilounas 154 km
Päivitetty: 20.11.2019 10:20
Heikkoa sadetta, Pilvistä  
Heikkoa sadetta, Pilvistä  
   Tuuli: Etelälounas 3.1 m/s
Tuuli: Etelälounas 3.1 m/s
Lämpötila: 7°C
Tuulen hyytävyys: 5°C
Kastepiste: 7°C
Kosteus: 100%
Ilmanpaine: 1025 hPa
Pilvisyys: Pilvistä
Näkyvyys: 4 km
Pilvitiedot: Pilvistä 152 m
EFPO 200820Z AUTO 20006KT 170V240 4200 -RA OVC005 07/07 Q1025 RESHRA RERA
EFUT - Utti (Fin-Afb), Finland
Etäisyys asemalta: Kaakko 180 km
Päivitetty: 20.11.2019 10:20
Heikkoa tihkusadetta, Pilvistä  
Heikkoa tihkusadetta, Pilvistä  
   Tuuli: Etelä 5.1 m/s
Tuuli: Etelä 5.1 m/s
Lämpötila: 4°C
Tuulen hyytävyys: 0°C
Kastepiste: 4°C
Kosteus: 100%
Ilmanpaine: 1030 hPa
Pilvisyys: Pilvistä
Näkyvyys: Enemmän kuin 10 km
Pilvitiedot: Pilvistä 152 m
EFUT 200820Z 18010KT 9999 -DZ OVC005 04/04 Q1030
EFVA - Vaasa, Finland
Etäisyys asemalta: Luode 180 km
Päivitetty: 20.11.2019 10:20
Pilvistä  
Pilvistä  
   Tuuli: Etelälounas 4.6 m/s
Tuuli: Etelälounas 4.6 m/s
Lämpötila: 6°C
Tuulen hyytävyys: 3°C
Kastepiste: 5°C
Kosteus: 93%
Ilmanpaine: 1022 hPa
Pilvisyys: Pilvistä
Näkyvyys: Enemmän kuin 10 km
Pilvitiedot: Pilvistä 244 m
EFVA 200820Z AUTO 21009KT 9999 OVC008 06/05 Q1022
EFHK - Helsinki/Vantaa, Finland
Etäisyys asemalta: Etelä 191 km
Päivitetty: 20.11.2019 10:20
Pilvistä  
Pilvistä  
   Tuuli: Eteläkaakko 5.1 m/s
Tuuli: Eteläkaakko 5.1 m/s
Lämpötila: 6°C
Tuulen hyytävyys: 3°C
Kastepiste: 5°C
Kosteus: 93%
Ilmanpaine: 1029 hPa
Pilvisyys: Pilvistä
Näkyvyys: Enemmän kuin 10 km
Pilvitiedot: Pilvistä 183 m
EFHK 200820Z 16010KT 9999 OVC006 06/05 Q1029 BECMG BKN010

Alkuperäinen skripti  Saratoga-weather.org Sovitettu myös templatelle  Weerstation Leuven

Laitteet joita käytämme:

Sääasema
Davis VP2

Sääasemaohjelma
Cumulus

Sääaseman palvelin
HP ProBook 6460b

Palveluntarjoaja
Radicenter

Davis VP2

Cumulus

HP ProBook 6460b

Radicenter




Flag Counter Cumulus Top Weather Sites